Time;durP1;ratioP1;P1;durP2;ratioP2;P2;SDS_P1;SDS_P2;PMS_P1;PMS_P2;Temp;Humidity;BMP_temperature;BMP_pressure;BME280_temperature;BME280_humidity;BME280_pressure;Samples;Min_cycle;Max_cycle;Signal;HPM_P1;HPM_P2
2023/09/19 00:01:30;;;;;;;20.65;4.00;;;;;;;13.58;100.00;100661.88;5095377;28;20023;-72
2023/09/19 00:03:57;;;;;;;18.20;3.80;;;;;;;13.60;100.00;100669.81;5095327;28;20024;-76
2023/09/19 00:06:25;;;;;;;20.48;4.20;;;;;;;13.57;100.00;100660.13;5091189;28;20052;-73
2023/09/19 00:08:51;;;;;;;19.60;3.85;;;;;;;13.52;100.00;100667.25;5094784;28;20044;-74
2023/09/19 00:11:16;;;;;;;20.35;4.13;;;;;;;13.51;100.00;100668.13;5095191;28;20440;-66
2023/09/19 00:13:43;;;;;;;19.30;3.72;;;;;;;13.48;100.00;100685.91;5095072;28;20071;-74
2023/09/19 00:16:10;;;;;;;23.50;4.60;;;;;;;13.41;100.00;100680.66;5095020;28;20028;-75
2023/09/19 00:18:39;;;;;;;22.65;4.10;;;;;;;13.39;100.00;100670.94;5094967;28;20035;-73
2023/09/19 00:21:07;;;;;;;21.83;3.85;;;;;;;13.35;100.00;100685.13;5094666;28;20040;-74
2023/09/19 00:23:33;;;;;;;19.48;4.10;;;;;;;13.35;100.00;100688.69;5095011;28;20032;-67
2023/09/19 00:25:59;;;;;;;20.88;3.85;;;;;;;13.31;100.00;100689.56;5094701;28;20023;-67
2023/09/19 00:28:24;;;;;;;23.60;3.97;;;;;;;13.27;100.00;100686.97;5094945;28;20051;-74
2023/09/19 00:30:49;;;;;;;20.02;3.90;;;;;;;13.25;100.00;100710.84;5094643;28;20024;-65
2023/09/19 00:33:16;;;;;;;23.83;3.97;;;;;;;13.21;100.00;100703.81;5094399;28;20039;-69
2023/09/19 00:35:51;;;;;;;20.23;3.95;;;;;;;13.20;100.00;100705.56;5094684;28;20372;-74
2023/09/19 00:38:20;;;;;;;22.27;4.10;;;;;;;13.17;100.00;100716.22;5094647;28;20613;-66
2023/09/19 00:40:47;;;;;;;18.75;3.80;;;;;;;13.17;100.00;100708.25;5094599;28;20091;-70
2023/09/19 00:43:12;;;;;;;20.95;4.00;;;;;;;13.19;100.00;100709.16;5094334;28;20023;-76
2023/09/19 00:45:42;;;;;;;20.20;3.60;;;;;;;13.16;100.00;100714.44;5094482;28;20367;-69
2023/09/19 00:48:09;;;;;;;22.23;4.18;;;;;;;13.11;100.00;100703.00;5094338;28;20038;-72
2023/09/19 00:50:35;;;;;;;20.52;3.80;;;;;;;13.14;100.00;100726.88;5093802;28;20035;-68
2023/09/19 00:53:00;;;;;;;20.42;3.60;;;;;;;13.15;100.00;100720.66;5094084;28;20036;-75
2023/09/19 00:55:29;;;;;;;20.70;4.03;;;;;;;13.17;100.00;100716.22;5094243;28;20028;-73
2023/09/19 00:57:56;;;;;;;20.33;4.00;;;;;;;13.11;100.00;100721.59;5090466;28;20028;-70
2023/09/19 01:00:23;;;;;;;18.50;3.50;;;;;;;13.11;100.00;100734.84;5092991;28;20446;-74
2023/09/19 01:02:48;;;;;;;20.65;3.97;;;;;;;13.04;100.00;100733.13;5094086;28;20107;-71
2023/09/19 01:05:14;;;;;;;20.45;3.70;;;;;;;12.99;100.00;100735.84;5093917;28;20119;-70
2023/09/19 01:07:44;;;;;;;20.52;3.88;;;;;;;12.96;100.00;100743.81;5092222;28;20044;-72
2023/09/19 01:10:12;;;;;;;19.38;3.80;;;;;;;12.91;100.00;100742.97;5094083;28;20111;-75
2023/09/19 01:12:59;;;;;;;19.33;3.83;;;;;;;12.94;100.00;100739.41;5093658;28;20077;-65
2023/09/19 01:15:40;;;;;;;20.63;3.88;;;;;;;12.94;100.00;100742.94;5089869;28;20035;-72
2023/09/19 01:18:23;;;;;;;18.73;3.65;;;;;;;12.98;100.00;100739.38;5091323;28;20032;-76
2023/09/19 01:21:10;;;;;;;20.30;3.45;;;;;;;12.94;100.00;100732.31;5093504;28;20051;-71
2023/09/19 01:24:09;;;;;;;20.88;3.70;;;;;;;12.91;100.00;100749.13;5091080;28;20471;-73
2023/09/19 01:27:07;;;;;;;21.42;3.85;;;;;;;12.87;100.00;100746.50;5091158;28;20112;-71
2023/09/19 01:29:39;;;;;;;21.00;4.10;;;;;;;12.80;100.00;100751.00;5090889;28;20032;-70
2023/09/19 01:32:07;;;;;;;20.92;3.78;;;;;;;12.83;100.00;100744.75;5093560;28;20028;-75
2023/09/19 01:34:52;;;;;;;20.15;4.03;;;;;;;12.82;100.00;100751.00;5093413;28;20111;-76
2023/09/19 01:37:20;;;;;;;18.05;3.70;;;;;;;12.84;100.00;100749.19;5093246;28;20394;-77
2023/09/19 01:39:48;;;;;;;19.48;3.70;;;;;;;12.76;100.00;100749.25;5093236;28;20111;-70
2023/09/19 01:42:30;;;;;;;19.88;3.78;;;;;;;12.74;100.00;100756.31;5093346;28;20032;-71
2023/09/19 01:45:07;;;;;;;18.07;3.80;;;;;;;12.68;100.00;100765.22;5089622;28;20095;-74
2023/09/19 01:47:37;;;;;;;20.17;3.70;;;;;;;12.69;100.00;100766.09;5090446;28;20395;-66
2023/09/19 01:50:31;;;;;;;19.33;3.80;;;;;;;12.77;100.00;100769.59;5093106;28;20035;-70
2023/09/19 01:53:06;;;;;;;17.48;3.50;;;;;;;12.70;100.00;100765.22;5089487;28;20058;-67
2023/09/19 01:55:43;;;;;;;20.63;3.75;;;;;;;12.68;100.00;100759.91;5089960;28;20099;-66
2023/09/19 01:58:22;;;;;;;18.85;3.70;;;;;;;12.71;100.00;100757.25;5092994;28;20108;-73
2023/09/19 02:00:51;;;;;;;18.67;3.80;;;;;;;12.73;100.00;100754.56;5092199;28;20463;-73
2023/09/19 02:03:17;;;;;;;19.05;3.50;;;;;;;12.76;100.00;100748.38;5093251;28;20036;-71
2023/09/19 02:05:53;;;;;;;18.00;3.50;;;;;;;12.74;100.00;100751.00;5092854;28;20040;-70
2023/09/19 02:08:19;;;;;;;22.05;3.72;;;;;;;12.77;100.00;100750.13;5092748;28;20052;-73
2023/09/19 02:10:48;;;;;;;21.35;3.75;;;;;;;12.70;100.00;100752.81;5092955;28;20039;-68
2023/09/19 02:13:19;;;;;;;16.85;3.60;;;;;;;12.63;100.00;100752.88;5093313;28;20044;-71
2023/09/19 02:15:44;;;;;;;17.95;3.67;;;;;;;12.61;100.00;100754.63;5092992;28;20047;-71
2023/09/19 02:18:11;;;;;;;19.00;3.60;;;;;;;12.59;100.00;100751.13;5092741;28;20027;-68
2023/09/19 02:20:37;;;;;;;18.90;3.65;;;;;;;12.56;100.00;100752.00;5093046;28;20039;-69
2023/09/19 02:23:03;;;;;;;20.92;3.50;;;;;;;12.52;100.00;100745.84;5092990;28;20036;-70
2023/09/19 02:25:29;;;;;;;21.10;3.55;;;;;;;12.54;100.00;100756.44;5092726;28;20106;-73
2023/09/19 02:27:54;;;;;;;19.42;3.38;;;;;;;12.50;100.00;100752.03;5091460;28;20077;-68
2023/09/19 02:30:25;;;;;;;17.10;3.22;;;;;;;12.45;100.00;100762.69;5092671;28;20047;-72
2023/09/19 02:32:50;;;;;;;19.13;3.53;;;;;;;12.43;100.00;100769.75;5092832;28;20038;-70
2023/09/19 02:35:16;;;;;;;21.02;3.78;;;;;;;12.39;100.00;100770.63;5092731;28;20024;-64
2023/09/19 02:37:41;;;;;;;20.85;3.58;;;;;;;12.41;100.00;100771.53;5092624;28;20028;-63
2023/09/19 02:40:18;;;;;;;17.30;3.60;;;;;;;12.38;100.00;100766.25;5092772;28;20381;-63
2023/09/19 02:42:46;;;;;;;19.58;3.33;;;;;;;12.36;100.00;100768.00;5092795;28;20471;-64
2023/09/19 02:45:12;;;;;;;18.65;3.40;;;;;;;12.24;100.00;100760.97;5092477;28;20094;-63
2023/09/19 02:47:39;;;;;;;19.35;3.67;;;;;;;12.21;100.00;100767.16;5092531;28;20027;-63
2023/09/19 02:50:05;;;;;;;20.58;3.50;;;;;;;12.21;100.00;100761.88;5092800;28;20089;-62
2023/09/19 02:52:30;;;;;;;19.73;3.70;;;;;;;12.17;100.00;100760.16;5092639;28;20107;-64
2023/09/19 02:54:56;;;;;;;18.10;3.67;;;;;;;12.19;100.00;100762.78;5092415;28;20024;-64
2023/09/19 02:57:21;;;;;;;19.90;3.53;;;;;;;12.18;100.00;100769.84;5092483;28;20079;-64
2023/09/19 02:59:47;;;;;;;19.55;3.85;;;;;;;12.15;100.00;100769.84;5092383;28;20031;-64
2023/09/19 03:02:12;;;;;;;18.60;3.70;;;;;;;12.17;100.00;100768.09;5092689;28;20025;-63
2023/09/19 03:04:37;;;;;;;18.65;3.42;;;;;;;12.17;100.00;100770.75;5092577;28;20028;-64
2023/09/19 03:07:04;;;;;;;18.58;3.40;;;;;;;12.19;100.00;100771.59;5092016;28;20115;-64
2023/09/19 03:09:29;;;;;;;17.38;3.30;;;;;;;12.17;100.00;100777.78;5091130;28;20063;-63
2023/09/19 03:11:55;;;;;;;19.98;3.53;;;;;;;12.18;100.00;100769.84;5093190;28;20059;-63
2023/09/19 03:14:20;;;;;;;17.65;3.40;;;;;;;12.13;100.00;100769.00;5096271;28;20436;-64
2023/09/19 03:16:45;;;;;;;17.73;3.42;;;;;;;12.16;100.00;100763.69;5096173;28;20029;-61
2023/09/19 03:19:11;;;;;;;19.13;3.25;;;;;;;12.13;100.00;100769.00;5096122;28;20028;-62
2023/09/19 03:21:36;;;;;;;16.98;3.35;;;;;;;12.11;100.00;100765.44;5095832;28;20076;-64
2023/09/19 03:24:02;;;;;;;19.33;3.58;;;;;;;12.08;100.00;100776.06;5096081;28;20111;-64
2023/09/19 03:26:27;;;;;;;19.60;3.80;;;;;;;12.14;100.00;100770.72;5095790;28;20044;-64
2023/09/19 03:28:54;;;;;;;18.40;3.30;;;;;;;12.18;100.00;100780.44;5095738;28;20035;-64
2023/09/19 03:31:19;;;;;;;17.45;3.58;;;;;;;12.17;100.00;100768.09;5095935;28;20043;-64
2023/09/19 03:33:44;;;;;;;19.83;3.60;;;;;;;12.07;100.00;100771.63;5095752;28;20111;-63
2023/09/19 03:36:10;;;;;;;17.77;3.50;;;;;;;12.05;100.00;100760.16;5095633;28;20475;-64
2023/09/19 03:38:35;;;;;;;19.17;3.50;;;;;;;12.09;100.00;100759.28;5095816;28;20111;-63
2023/09/19 03:41:02;;;;;;;18.00;3.40;;;;;;;12.14;100.00;100764.56;5095719;28;20059;-63
2023/09/19 03:43:27;;;;;;;17.33;3.28;;;;;;;12.26;100.00;100758.31;5095447;28;20035;-63
2023/09/19 03:45:55;;;;;;;17.95;3.53;;;;;;;12.33;100.00;100765.38;5094390;28;20024;-64
2023/09/19 03:48:21;;;;;;;18.42;3.63;;;;;;;12.46;100.00;100772.38;5095425;28;20028;-64
2023/09/19 03:50:47;;;;;;;20.38;3.38;;;;;;;12.41;100.00;100758.28;5095320;28;20036;-63
2023/09/19 03:53:13;;;;;;;20.83;3.30;;;;;;;12.45;100.00;100760.03;5095802;28;20036;-63
2023/09/19 03:55:38;;;;;;;18.23;3.63;;;;;;;12.43;100.00;100747.66;5095054;28;20028;-64
2023/09/19 03:58:05;;;;;;;19.65;3.55;;;;;;;12.52;100.00;100751.16;5095157;28;20070;-64
2023/09/19 04:00:30;;;;;;;20.65;3.55;;;;;;;12.53;100.00;100750.25;5095359;28;20111;-62
2023/09/19 04:02:56;;;;;;;18.85;3.40;;;;;;;12.49;100.00;100766.19;5095142;28;20107;-63
2023/09/19 04:05:22;;;;;;;20.25;3.33;;;;;;;12.48;100.00;100749.41;5095343;28;20478;-64
2023/09/19 04:07:47;;;;;;;19.20;3.30;;;;;;;12.50;100.00;100763.53;5094929;28;20079;-63
2023/09/19 04:10:14;;;;;;;17.27;3.13;;;;;;;12.51;100.00;100752.03;5095089;28;20107;-63
2023/09/19 04:12:40;;;;;;;19.30;3.35;;;;;;;12.53;100.00;100760.84;5095409;28;20064;-63
2023/09/19 04:15:06;;;;;;;18.35;3.50;;;;;;;12.63;100.00;100748.44;5094075;28;20020;-62
2023/09/19 04:17:35;;;;;;;19.70;3.38;;;;;;;12.58;100.00;100760.81;5094815;28;20110;-72
2023/09/19 04:20:00;;;;;;;18.33;3.30;;;;;;;12.55;100.00;100767.03;5094974;28;20120;-68
2023/09/19 04:22:26;;;;;;;19.60;3.70;;;;;;;12.50;100.00;100774.13;5095039;28;20483;-72
2023/09/19 04:24:51;;;;;;;18.42;3.30;;;;;;;12.51;100.00;100788.28;5093899;28;20032;-74
2023/09/19 04:27:18;;;;;;;18.63;3.65;;;;;;;12.52;100.00;100782.97;5094809;28;20035;-65
2023/09/19 04:29:44;;;;;;;17.75;3.17;;;;;;;12.50;100.00;100784.72;5094655;28;20040;-73
2023/09/19 04:32:09;;;;;;;19.65;3.60;;;;;;;12.53;100.00;100789.16;5094529;28;20028;-67
2023/09/19 04:34:35;;;;;;;18.17;3.38;;;;;;;12.50;100.00;100805.94;5094757;28;20024;-70
2023/09/19 04:37:02;;;;;;;18.88;3.38;;;;;;;12.59;100.00;100804.16;5094668;28;20065;-73
2023/09/19 04:39:28;;;;;;;17.27;3.60;;;;;;;12.59;100.00;100798.84;5094480;28;20081;-77
2023/09/19 04:41:54;;;;;;;18.75;3.53;;;;;;;12.62;100.00;100812.09;5094815;28;20378;-73
2023/09/19 04:44:20;;;;;;;17.17;3.30;;;;;;;12.68;100.00;100814.72;5094247;28;20032;-71
2023/09/19 04:46:46;;;;;;;20.60;3.70;;;;;;;12.77;100.00;100824.38;5094174;28;20410;-74
2023/09/19 04:49:12;;;;;;;19.60;3.67;;;;;;;12.78;100.00;100832.34;5094378;28;20028;-71
2023/09/19 04:51:37;;;;;;;20.17;3.40;;;;;;;12.84;100.00;100821.72;5094184;28;20107;-71
2023/09/19 04:54:03;;;;;;;21.67;3.40;;;;;;;12.81;100.00;100829.66;5092921;28;20390;-73
2023/09/19 04:56:28;;;;;;;20.98;3.65;;;;;;;12.84;100.00;100848.25;5094280;28;20028;-63
2023/09/19 04:58:54;;;;;;;19.30;3.20;;;;;;;12.86;100.00;100843.81;5094347;28;20115;-63
2023/09/19 05:01:22;;;;;;;17.40;3.30;;;;;;;12.79;100.00;100834.09;5093974;28;20028;-63
2023/09/19 05:03:52;;;;;;;19.63;3.80;;;;;;;12.87;100.00;100837.63;5094179;28;20028;-62
2023/09/19 05:06:18;;;;;;;18.90;3.65;;;;;;;12.86;100.00;100841.16;5093793;28;20020;-63
2023/09/19 05:08:43;;;;;;;19.73;3.30;;;;;;;12.75;100.00;100837.66;5093760;28;20044;-63
2023/09/19 05:11:09;;;;;;;18.67;3.50;;;;;;;12.70;100.00;100836.81;5094126;28;20104;-61
2023/09/19 05:13:34;;;;;;;22.00;3.90;;;;;;;12.70;100.00;100847.44;5093732;28;20031;-64
2023/09/19 05:16:02;;;;;;;20.15;3.70;;;;;;;12.75;100.00;100839.44;5093820;28;20024;-62
2023/09/19 05:18:28;;;;;;;19.10;3.40;;;;;;;12.83;100.00;100840.25;5090041;28;20033;-64
2023/09/19 05:20:54;;;;;;;18.48;3.40;;;;;;;12.74;100.00;100841.19;5093592;28;20028;-64
2023/09/19 05:23:20;;;;;;;17.05;3.17;;;;;;;12.72;100.00;100842.97;5093776;28;20020;-63
2023/09/19 05:25:46;;;;;;;18.20;3.30;;;;;;;12.74;100.00;100846.50;5093664;28;20032;-62
2023/09/19 05:28:12;;;;;;;20.20;3.78;;;;;;;12.76;100.00;100841.22;5093387;28;20081;-63
2023/09/19 05:30:42;;;;;;;20.77;3.83;;;;;;;12.71;100.00;100852.72;5093517;28;20487;-63
2023/09/19 05:33:08;;;;;;;18.75;3.40;;;;;;;12.66;100.00;100848.31;5093539;28;20428;-62
2023/09/19 05:35:34;;;;;;;16.90;3.20;;;;;;;12.61;100.00;100852.75;5088764;28;20029;-61
2023/09/19 05:37:59;;;;;;;19.15;3.58;;;;;;;12.60;100.00;100849.22;5082267;28;20025;-61
2023/09/19 05:40:26;;;;;;;19.20;3.58;;;;;;;12.59;100.00;100857.19;5081670;28;20017;-62
2023/09/19 05:42:51;;;;;;;17.65;3.50;;;;;;;12.61;100.00;100864.25;5081772;28;20036;-62
2023/09/19 05:45:22;;;;;;;16.80;3.40;;;;;;;12.61;100.00;100871.31;5082255;28;20021;-62
2023/09/19 05:47:55;;;;;;;19.30;3.38;;;;;;;12.64;100.00;100860.69;5090432;28;20490;-69
2023/09/19 05:50:21;;;;;;;19.35;3.60;;;;;;;12.66;100.00;100858.94;5089662;28;20101;-68
2023/09/19 05:52:53;;;;;;;23.55;3.90;;;;;;;12.72;100.00;100865.06;5089965;28;20052;-66
2023/09/19 05:55:19;;;;;;;19.35;3.83;;;;;;;12.71;100.00;100854.47;5093012;28;20383;-66
2023/09/19 05:57:50;;;;;;;17.65;3.53;;;;;;;12.72;100.00;100842.97;5092733;28;20036;-71
2023/09/19 06:00:18;;;;;;;19.98;3.65;;;;;;;12.75;100.00;100842.09;5092711;28;20547;-65
2023/09/19 06:02:44;;;;;;;19.63;3.75;;;;;;;12.74;100.00;100851.81;5093066;28;20032;-69
2023/09/19 06:05:10;;;;;;;18.20;3.45;;;;;;;12.76;100.00;100847.38;5092974;28;20036;-67
2023/09/19 06:07:37;;;;;;;19.77;3.67;;;;;;;12.83;100.00;100854.44;5092297;28;20044;-73
2023/09/19 06:10:05;;;;;;;17.88;3.70;;;;;;;12.82;100.00;100857.97;5092861;28;20044;-76
2023/09/19 06:12:33;;;;;;;19.30;3.47;;;;;;;12.81;100.00;100856.19;5092822;28;20115;-73
2023/09/19 06:14:59;;;;;;;19.42;3.65;;;;;;;12.85;100.00;100852.63;5088836;28;20032;-73
2023/09/19 06:17:24;;;;;;;18.30;3.67;;;;;;;12.81;100.00;100861.50;5092769;28;20035;-68
2023/09/19 06:19:50;;;;;;;18.50;3.67;;;;;;;12.85;100.00;100863.25;5092889;28;20382;-69
2023/09/19 06:22:19;;;;;;;20.73;4.38;;;;;;;12.90;100.00;100873.84;5092527;28;20032;-69
2023/09/19 06:24:46;;;;;;;19.40;3.50;;;;;;;12.96;100.00;100860.56;5092042;28;20036;-69
2023/09/19 06:27:12;;;;;;;19.75;3.67;;;;;;;12.96;100.00;100864.97;5092673;28;20035;-70
2023/09/19 06:29:37;;;;;;;19.92;3.67;;;;;;;12.99;100.00;100873.81;5092843;28;20028;-72
2023/09/19 06:32:10;;;;;;;21.17;3.60;;;;;;;13.01;100.00;100877.31;5092485;28;20066;-61
2023/09/19 06:34:35;;;;;;;21.00;3.95;;;;;;;13.00;100.00;100880.00;5092924;28;20115;-60
2023/09/19 06:37:01;;;;;;;21.90;4.03;;;;;;;12.99;100.00;100880.88;5092228;28;20119;-60
2023/09/19 06:39:26;;;;;;;20.80;3.95;;;;;;;13.03;100.00;100879.97;5092662;28;20028;-60
2023/09/19 06:41:55;;;;;;;20.50;3.90;;;;;;;13.03;100.00;100883.53;5092492;28;20378;-61
2023/09/19 06:44:24;;;;;;;19.85;4.05;;;;;;;13.03;100.00;100888.84;5092414;28;20115;-61
2023/09/19 06:46:51;;;;;;;19.75;3.80;;;;;;;13.12;100.00;100882.59;5080678;28;20039;-61
2023/09/19 06:49:19;;;;;;;21.02;3.72;;;;;;;13.12;100.00;100889.66;5086363;28;20039;-61
2023/09/19 06:51:44;;;;;;;18.65;3.45;;;;;;;13.11;100.00;100902.06;5085796;28;20020;-60
2023/09/19 06:54:10;;;;;;;19.60;3.78;;;;;;;13.15;100.00;100895.84;5089652;28;20077;-60
2023/09/19 06:56:36;;;;;;;20.90;3.60;;;;;;;13.18;100.00;100894.94;5084914;28;20017;-61
2023/09/19 06:59:02;;;;;;;22.02;4.38;;;;;;;13.18;100.00;100890.50;5083760;28;20054;-62
2023/09/19 07:01:28;;;;;;;22.17;3.60;;;;;;;13.27;100.00;100894.00;5086228;28;20093;-63
2023/09/19 07:03:53;;;;;;;21.83;3.90;;;;;;;13.37;100.00;100885.13;5096233;28;20413;-62
2023/09/19 07:06:18;;;;;;;18.05;3.20;;;;;;;13.39;100.00;100886.00;5084079;28;20040;-63
2023/09/19 07:08:45;;;;;;;21.40;3.88;;;;;;;13.46;100.00;100885.06;5094510;28;20051;-63
2023/09/19 07:11:12;;;;;;;21.48;3.60;;;;;;;13.47;100.00;100889.50;5095957;28;20040;-62
2023/09/19 07:13:38;;;;;;;20.08;3.70;;;;;;;13.56;100.00;100905.34;5096378;28;20035;-63
2023/09/19 07:16:03;;;;;;;20.48;3.67;;;;;;;13.60;100.00;100895.56;5096345;28;20391;-63
2023/09/19 07:18:29;;;;;;;18.98;3.30;;;;;;;13.65;100.00;100884.94;5096487;28;20031;-62
2023/09/19 07:20:58;;;;;;;19.52;3.58;;;;;;;13.70;100.00;100904.34;5095981;28;20463;-63
2023/09/19 07:23:25;;;;;;;21.17;3.80;;;;;;;13.75;100.00;100891.94;5092057;28;20028;-63
2023/09/19 07:25:51;;;;;;;20.10;4.05;;;;;;;13.75;100.00;100895.47;5095990;28;20123;-62
2023/09/19 07:28:17;;;;;;;19.42;3.58;;;;;;;13.75;100.00;100902.56;5095730;28;20107;-64
2023/09/19 07:30:42;;;;;;;20.05;3.60;;;;;;;13.78;100.00;100886.59;5095718;28;20025;-62
2023/09/19 07:33:11;;;;;;;20.15;3.60;;;;;;;13.76;100.00;100894.56;5095794;28;20036;-63
2023/09/19 07:35:37;;;;;;;20.52;3.70;;;;;;;13.85;100.00;100887.41;5095733;28;20451;-65
2023/09/19 07:38:03;;;;;;;20.45;3.75;;;;;;;13.92;100.00;100875.81;5095618;28;20097;-70
2023/09/19 07:40:28;;;;;;;21.90;3.70;;;;;;;13.99;100.00;100884.63;5095873;28;20459;-67
2023/09/19 07:42:57;;;;;;;21.52;3.47;;;;;;;14.10;100.00;100898.72;5095536;28;20395;-72
2023/09/19 07:45:22;;;;;;;21.35;3.80;;;;;;;14.24;100.00;100893.25;5095451;28;20032;-70
2023/09/19 07:47:49;;;;;;;22.20;4.00;;;;;;;14.36;100.00;100897.56;5095457;28;20521;-71
2023/09/19 07:50:18;;;;;;;18.95;3.53;;;;;;;14.40;100.00;100899.28;5095548;28;20032;-73
2023/09/19 07:52:45;;;;;;;20.67;3.47;;;;;;;14.40;100.00;100883.34;5095344;28;20066;-71
2023/09/19 07:55:11;;;;;;;22.65;3.80;;;;;;;14.46;100.00;100892.16;5094205;28;20433;-73
2023/09/19 07:57:37;;;;;;;19.00;3.45;;;;;;;14.54;100.00;100872.56;5095094;28;20032;-73
2023/09/19 08:00:06;;;;;;;17.80;3.28;;;;;;;14.59;100.00;100892.91;5093958;28;20020;-70
2023/09/19 08:02:37;;;;;;;21.65;4.05;;;;;;;14.69;100.00;100882.16;5095288;28;20031;-70
2023/09/19 08:05:06;;;;;;;20.27;4.03;;;;;;;14.72;100.00;100901.66;5095091;28;20029;-73
2023/09/19 08:07:32;;;;;;;22.30;3.70;;;;;;;14.79;100.00;100905.09;5094709;28;20111;-72
2023/09/19 08:09:58;;;;;;;20.67;3.70;;;;;;;14.92;100.00;100892.53;5095363;28;20111;-71
2023/09/19 08:12:24;;;;;;;21.42;3.78;;;;;;;15.04;100.00;100894.13;5090923;28;20051;-72
2023/09/19 08:14:50;;;;;;;20.63;3.60;;;;;;;15.13;100.00;100902.91;5094941;28;20502;-70
2023/09/19 08:17:15;;;;;;;18.60;3.50;;;;;;;15.21;100.00;100901.91;5093737;28;20051;-73
2023/09/19 08:19:42;;;;;;;20.58;3.65;;;;;;;15.26;100.00;100900.03;5094805;28;20032;-73
2023/09/19 08:22:10;;;;;;;19.95;3.40;;;;;;;15.30;100.00;100886.69;5094852;28;20051;-73
2023/09/19 08:24:36;;;;;;;19.00;3.67;;;;;;;15.30;100.00;100893.78;5093761;28;20020;-72
2023/09/19 08:27:04;;;;;;;18.10;3.22;;;;;;;15.31;100.00;100901.75;5094694;28;20047;-72
2023/09/19 08:29:29;;;;;;;20.20;3.70;;;;;;;15.31;100.00;100895.56;5094678;28;20028;-70
2023/09/19 08:31:56;;;;;;;18.30;3.40;;;;;;;15.46;100.00;100907.75;5094795;28;20030;-70
2023/09/19 08:34:25;;;;;;;20.90;3.80;;;;;;;15.45;100.00;100913.97;5094817;28;20077;-73
2023/09/19 08:36:52;;;;;;;21.10;3.88;;;;;;;15.56;100.00;100911.16;5093138;28;20403;-73
2023/09/19 08:39:18;;;;;;;19.13;3.97;;;;;;;15.58;100.00;100899.59;5094981;28;20024;-73
2023/09/19 08:41:44;;;;;;;20.55;3.58;;;;;;;15.89;100.00;100895.56;5093599;28;20063;-73
2023/09/19 08:44:10;;;;;;;18.63;3.40;;;;;;;16.09;100.00;100888.13;5094549;28;20056;-73
2023/09/19 08:46:41;;;;;;;19.63;3.67;;;;;;;15.93;100.00;100903.50;5094127;28;20066;-73
2023/09/19 08:49:20;;;;;;;19.57;3.70;;;;;;;15.89;100.00;100896.47;5093875;28;20024;-70
2023/09/19 08:51:48;;;;;;;16.88;3.30;;;;;;;15.90;100.00;100890.22;5094068;28;20048;-73
2023/09/19 08:54:29;;;;;;;19.50;3.38;;;;;;;15.90;100.00;100892.00;5094176;28;20490;-73
2023/09/19 08:56:56;;;;;;;19.45;3.85;;;;;;;16.32;100.00;100895.69;5090235;28;20082;-73
2023/09/19 08:59:24;;;;;;;18.83;3.60;;;;;;;17.04;100.00;100889.84;5094183;28;20020;-73
2023/09/19 09:01:53;;;;;;;22.20;3.92;;;;;;;16.94;100.00;100893.63;5093934;28;20107;-73
2023/09/19 09:04:19;;;;;;;20.20;4.07;;;;;;;16.98;100.00;100890.84;5093871;28;20059;-71
2023/09/19 09:06:46;;;;;;;18.85;3.50;;;;;;;17.13;100.00;100880.75;5092752;28;20062;-73
2023/09/19 09:09:12;;;;;;;19.88;3.53;;;;;;;17.21;100.00;100882.34;5093703;28;20048;-73
2023/09/19 09:11:39;;;;;;;19.27;3.60;;;;;;;17.47;100.00;100885.31;5058714;28;20081;-72
2023/09/19 09:14:07;;;;;;;17.88;3.40;;;;;;;17.51;100.00;100885.19;5093979;28;20138;-73
2023/09/19 09:16:32;;;;;;;18.73;3.40;;;;;;;17.51;100.00;100911.06;5093745;28;20031;-73
2023/09/19 09:18:58;;;;;;;18.15;3.55;;;;;;;17.46;100.00;100900.47;5093667;28;20029;-73
2023/09/19 09:21:26;;;;;;;20.08;3.30;;;;;;;17.34;100.00;100880.25;5094088;28;20032;-73
2023/09/19 09:23:53;;;;;;;18.55;3.70;;;;;;;17.72;100.00;100886.50;5093547;28;20027;-72
2023/09/19 09:26:45;;;;;;;20.33;3.70;;;;;;;17.77;100.00;100889.91;5093516;28;20538;-73
2023/09/19 09:29:10;;;;;;;20.50;3.70;;;;;;;17.53;100.00;100899.44;5091649;28;20026;-73
2023/09/19 09:31:37;;;;;;;18.42;3.25;;;;;;;17.86;100.00;100887.94;5093601;28;20112;-73
2023/09/19 09:34:03;;;;;;;20.20;3.70;;;;;;;18.32;100.00;100880.53;5093391;28;20024;-73
2023/09/19 09:36:34;;;;;;;20.55;3.47;;;;;;;18.60;100.00;100891.34;5093351;28;20028;-73
2023/09/19 09:39:15;;;;;;;16.70;3.42;;;;;;;18.62;100.00;100877.00;5089996;28;20020;-70
2023/09/19 09:41:41;;;;;;;15.95;3.00;;;;;;;18.66;100.00;100874.25;5093773;28;20020;-73
2023/09/19 09:44:15;;;;;;;19.27;3.50;;;;;;;18.38;100.00;100867.88;5093207;28;20464;-72
2023/09/19 09:49:19;;;;;;;;;;;;;;;19.08;100.00;100876.59;5093613;28;20395;-62
2023/09/19 09:52:17;;;;;;;17.00;3.67;;;;;;;18.88;100.00;100866.50;5093291;28;19916;-63
2023/09/19 09:55:07;;;;;;;21.77;3.40;;;;;;;19.39;100.00;100899.75;5091374;28;20040;-63
2023/09/19 09:57:33;;;;;;;16.42;3.55;;;;;;;19.61;100.00;100862.41;5090141;28;20078;-63
2023/09/19 10:00:16;;;;;;;18.45;3.38;;;;;;;19.42;100.00;100873.72;5093433;28;20016;-63
2023/09/19 10:02:43;;;;;;;19.23;3.40;;;;;;;19.12;100.00;100865.75;5085498;28;20375;-63
2023/09/19 10:07:53;;;;;;;17.60;3.17;;;;;;;19.45;100.00;100878.13;5092818;28;20612;-63
2023/09/19 10:11:05;;;;;;;18.52;3.50;;;;;;;19.71;100.00;100871.03;5092886;28;20081;-63
2023/09/19 10:13:26;;;;;;;17.45;3.08;;;;;;;19.55;100.00;100902.84;5091728;28;20040;-63
2023/09/19 10:15:55;;;;;;;17.23;3.10;;;;;;;19.26;100.00;100864.44;5092860;28;20039;-63
2023/09/19 10:18:32;;;;;;;16.23;3.30;;;;;;;19.60;100.00;100863.34;5092962;28;20106;-63
2023/09/19 10:20:59;;;;;;;19.38;3.75;;;;;;;19.81;100.00;100870.69;5088768;28;20367;-63
2023/09/19 10:23:27;;;;;;;17.98;3.38;;;;;;;19.64;100.00;100863.22;5092233;28;20491;-63
2023/09/19 10:25:53;;;;;;;17.90;3.20;;;;;;;19.79;100.00;100853.81;5092984;28;20367;-63
2023/09/19 10:28:23;;;;;;;16.95;3.00;;;;;;;20.17;100.00;100874.88;5089727;28;20028;-63
2023/09/19 10:30:50;;;;;;;19.05;3.40;;;;;;;19.43;100.00;100859.41;5083731;28;20387;-62
2023/09/19 10:33:29;;;;;;;15.75;3.05;;;;;;;19.87;100.00;100884.84;5092354;28;20028;-73
2023/09/19 10:35:59;;;;;;;17.42;3.30;;;;;;;19.89;100.00;100870.44;5092280;28;20047;-73
2023/09/19 10:38:26;;;;;;;16.92;3.17;;;;;;;20.31;100.00;100874.38;5092784;28;20103;-72
2023/09/19 10:40:59;;;;;;;20.35;3.10;;;;;;;20.53;100.00;100882.50;5092505;28;20058;-73
2023/09/19 10:43:31;;;;;;;16.15;3.15;;;;;;;21.06;100.00;100871.59;5092544;28;20024;-71
2023/09/19 10:46:03;;;;;;;19.40;3.20;;;;;;;21.59;100.00;100877.59;5092567;28;20024;-72
2023/09/19 10:48:29;;;;;;;15.85;3.00;;;;;;;20.98;100.00;100875.50;5092689;28;20047;-72
2023/09/19 10:51:04;;;;;;;15.05;2.88;;;;;;;21.43;100.00;100871.94;5092414;28;20028;-72
2023/09/19 10:53:43;;;;;;;18.13;3.42;;;;;;;21.22;100.00;100858.44;5092502;28;20050;-73
2023/09/19 10:56:17;;;;;;;17.27;3.13;;;;;;;21.79;100.00;100863.31;5088522;28;20269;-70
2023/09/19 10:58:44;;;;;;;16.80;2.90;;;;;;;21.71;100.00;100865.44;5085649;28;20387;-73
2023/09/19 11:01:15;;;;;;;16.08;3.05;;;;;;;21.49;100.00;100866.31;5092514;28;20031;-68
2023/09/19 11:03:43;;;;;;;16.63;2.80;;;;;;;21.58;100.00;100847.16;5092359;28;20418;-74
2023/09/19 11:06:10;;;;;;;17.42;2.97;;;;;;;21.32;100.00;100849.97;5087505;28;20046;-63
2023/09/19 11:11:40;;;;;;;14.93;2.85;;;;;;;20.90;100.00;100832.84;5090819;28;20521;-67
2023/09/19 11:14:23;;;;;;;17.60;3.10;;;;;;;21.70;100.00;100826.06;5089199;28;20060;-67
2023/09/19 11:17:11;;;;;;;18.70;3.33;;;;;;;22.50;100.00;100827.97;5089049;28;20032;-67
2023/09/19 11:22:56;;;;;;;15.95;2.90;;;;;;;22.74;100.00;100825.06;5091481;28;20035;-67
2023/09/19 11:25:34;;;;;;;15.32;2.78;;;;;;;22.62;100.00;100826.53;5089660;28;20107;-62
2023/09/19 11:28:06;;;;;;;16.67;2.80;;;;;;;23.01;100.00;100827.38;5092170;28;20082;-69